Time;durP1;ratioP1;P1;durP2;ratioP2;P2;SDS_P1;SDS_P2;PMS_P1;PMS_P2;Temp;Humidity;BMP_temperature;BMP_pressure;BME280_temperature;BME280_humidity;BME280_pressure;Samples;Min_cycle;Max_cycle;Signal;HPM_P1;HPM_P2
2022/12/28 00:01:18;;;;;;;;;;;4.80;99.90;;;;;;5088446;28;1115;-70
2022/12/28 00:03:43;;;;;;;;;;;4.80;99.90;;;;;;5070621;28;1183;-70
2022/12/28 00:06:09;;;;;;;;;;;4.80;99.90;;;;;;5069571;28;1084;-70
2022/12/28 00:08:35;;;;;;;;;;;4.80;99.90;;;;;;5089099;28;1143;-71
2022/12/28 00:11:03;;;;;;;;;;;4.70;99.90;;;;;;5088845;28;1151;-71
2022/12/28 00:13:30;;;;;;;;;;;5.30;99.90;;;;;;5087840;28;1095;-70
2022/12/28 00:15:56;;;;;;;;;;;4.80;99.90;;;;;;5088907;28;1116;-71
2022/12/28 00:18:21;;;;;;;;;;;4.80;99.90;;;;;;5088837;28;1967;-70
2022/12/28 00:20:55;;;;;;;;;;;5.00;99.90;;;;;;5087572;28;1599;-70
2022/12/28 00:23:21;;;;;;;;;;;4.70;99.90;;;;;;5088763;28;1065;-70
2022/12/28 00:25:47;;;;;;;;;;;4.70;99.90;;;;;;5088791;28;1092;-70
2022/12/28 00:28:12;;;;;;;;;;;4.70;99.90;;;;;;5087631;28;1652;-70
2022/12/28 00:30:38;;;;;;;;;;;4.70;99.90;;;;;;5070092;28;1104;-70
2022/12/28 00:33:03;;;;;;;;;;;4.70;99.90;;;;;;5088224;28;1100;-68
2022/12/28 00:35:29;;;;;;;;;;;4.70;99.90;;;;;;5069403;28;1147;-67
2022/12/28 00:37:55;;;;;;;;;;;4.70;99.90;;;;;;5087402;28;1119;-67
2022/12/28 00:40:20;;;;;;;;;;;4.90;99.90;;;;;;5088326;28;1978;-68
2022/12/28 00:42:47;;;;;;;;;;;4.80;99.90;;;;;;5069543;28;1120;-67
2022/12/28 00:45:12;;;;;;;;;;;4.70;99.90;;;;;;5042394;28;1179;-67
2022/12/28 00:47:38;;;;;;;;;;;4.80;99.90;;;;;;5088075;28;1103;-68
2022/12/28 00:50:04;;;;;;;;;;;4.80;99.90;;;;;;5069112;28;1199;-69
2022/12/28 00:52:29;;;;;;;;;;;4.80;99.90;;;;;;5087699;28;1095;-68
2022/12/28 00:54:55;;;;;;;;;;;4.80;99.90;;;;;;5087865;28;1199;-68
2022/12/28 00:57:21;;;;;;;;;;;4.80;99.90;;;;;;5069119;28;1186;-68
2022/12/28 00:59:46;;;;;;;;;;;4.80;99.90;;;;;;5087428;28;2008;-68
2022/12/28 01:02:12;;;;;;;;;;;4.70;99.90;;;;;;5087617;28;1151;-68
2022/12/28 01:04:37;;;;;;;;;;;4.80;99.90;;;;;;5087532;28;1297;-68
2022/12/28 01:07:03;;;;;;;;;;;4.80;99.90;;;;;;5069285;28;1124;-68
2022/12/28 01:09:30;;;;;;;;;;;4.70;99.90;;;;;;5087275;28;1200;-68
2022/12/28 01:11:55;;;;;;;;;;;4.80;99.90;;;;;;5053081;28;1100;-68
2022/12/28 01:14:21;;;;;;;;;;;4.80;99.90;;;;;;5087429;28;1095;-68
2022/12/28 01:16:47;;;;;;;;;;;4.90;99.90;;;;;;5068502;28;1111;-68
2022/12/28 01:19:15;;;;;;;;;;;4.90;99.90;;;;;;5087705;28;1938;-68
2022/12/28 01:21:41;;;;;;;;;;;4.80;99.90;;;;;;5087391;28;1134;-68
2022/12/28 01:24:08;;;;;;;;;;;4.90;99.90;;;;;;5087065;28;1131;-69
2022/12/28 01:26:34;;;;;;;;;;;4.90;99.90;;;;;;5069216;28;1418;-69
2022/12/28 01:29:01;;;;;;;;;;;5.00;99.90;;;;;;5087062;28;1116;-69
2022/12/28 01:31:30;;;;;;;;;;;5.00;99.90;;;;;;5051911;28;2241;-69
2022/12/28 01:33:56;;;;;;;;;;;5.00;99.90;;;;;;5087676;28;1237;-69
2022/12/28 01:36:23;;;;;;;;;;;5.00;99.90;;;;;;5087086;28;1111;-69
2022/12/28 01:38:56;;;;;;;;;;;5.00;99.90;;;;;;5086794;28;1969;-69
2022/12/28 01:41:23;;;;;;;;;;;5.00;99.90;;;;;;5087362;28;1115;-70
2022/12/28 01:43:54;;;;;;;;;;;5.00;99.90;;;;;;5086842;28;1016;-70
2022/12/28 01:46:34;;;;;;;;;;;5.10;99.90;;;;;;5086738;28;1135;-70
2022/12/28 01:49:04;;;;;;;;;;;5.10;99.90;;;;;;5076111;28;1281;-70
2022/12/28 01:51:32;;;;;;;;;;;5.10;99.90;;;;;;5054414;28;1129;-70
2022/12/28 01:54:00;;;;;;;;;;;5.10;99.90;;;;;;5069932;28;1281;-70
2022/12/28 01:56:26;;;;;;;;;;;5.10;99.90;;;;;;5071184;28;1068;-70
2022/12/28 01:58:52;;;;;;;;;;;5.10;99.90;;;;;;5070100;28;1902;-70
2022/12/28 02:01:18;;;;;;;;;;;5.00;99.90;;;;;;5069821;28;1080;-71
2022/12/28 02:03:44;;;;;;;;;;;5.00;99.90;;;;;;5071193;28;1147;-71
2022/12/28 02:06:11;;;;;;;;;;;5.10;99.90;;;;;;5069796;28;1336;-71
2022/12/28 02:08:43;;;;;;;;;;;5.10;99.90;;;;;;5070823;28;1181;-71
2022/12/28 02:11:11;;;;;;;;;;;5.00;99.90;;;;;;5069491;28;1128;-71
2022/12/28 02:13:37;;;;;;;;;;;5.00;99.90;;;;;;5068785;28;1772;-70
2022/12/28 02:16:04;;;;;;;;;;;5.40;99.90;;;;;;5071136;28;1087;-70
2022/12/28 02:18:29;;;;;;;;;;;5.00;99.90;;;;;;5070869;28;1898;-70
2022/12/28 02:20:55;;;;;;;;;;;5.00;99.90;;;;;;5058100;28;1143;-71
2022/12/28 02:23:27;;;;;;;;;;;5.00;99.90;;;;;;5069133;28;1163;-70
2022/12/28 02:26:06;;;;;;;;;;;5.00;99.90;;;;;;5070655;28;1346;-70
2022/12/28 02:28:45;;;;;;;;;;;5.00;99.90;;;;;;5068303;28;1093;-70
2022/12/28 02:31:14;;;;;;;;;;;5.00;99.90;;;;;;5070733;28;1127;-70
2022/12/28 02:33:50;;;;;;;;;;;5.00;99.90;;;;;;5069899;28;1119;-70
2022/12/28 02:36:18;;;;;;;;;;;5.00;99.90;;;;;;5070016;28;1066;-70
2022/12/28 02:38:47;;;;;;;;;;;5.10;99.90;;;;;;5069183;28;1938;-70
2022/12/28 02:41:16;;;;;;;;;;;5.10;99.90;;;;;;5068131;28;1064;-70
2022/12/28 02:43:42;;;;;;;;;;;5.10;99.90;;;;;;5068514;28;1176;-70
2022/12/28 02:51:47;;;;;;;;;;;5.00;99.90;;;;;;5069048;28;1148;-69
2022/12/28 02:57:28;;;;;;;;;;;5.10;99.90;;;;;;5067671;28;1135;-68
2022/12/28 03:00:05;;;;;;;;;;;5.10;99.90;;;;;;5070010;28;1909;-69
2022/12/28 03:02:42;;;;;;;;;;;5.10;99.90;;;;;;5069004;28;1091;-69
2022/12/28 03:05:11;;;;;;;;;;;5.10;99.90;;;;;;5061295;28;1073;-69
2022/12/28 03:10:33;;;;;;;;;;;5.10;99.90;;;;;;5067993;28;1136;-69
2022/12/28 03:13:03;;;;;;;;;;;5.30;99.90;;;;;;5068081;28;1044;-69
2022/12/28 03:15:35;;;;;;;;;;;5.20;99.90;;;;;;5068422;28;1160;-69
2022/12/28 03:32:03;;;;;;;;;;;5.20;99.90;;;;;;5055969;28;1101;-68
2022/12/28 03:34:29;;;;;;;;;;;5.20;99.90;;;;;;5067839;28;1147;-68
2022/12/28 03:37:06;;;;;;;;;;;5.20;99.90;;;;;;5068165;28;1124;-68
2022/12/28 03:39:37;;;;;;;;;;;5.20;99.90;;;;;;5067868;28;1910;-68
2022/12/28 03:44:54;;;;;;;;;;;5.10;99.90;;;;;;5056428;28;1166;-68
2022/12/28 03:47:21;;;;;;;;;;;5.30;99.90;;;;;;5047241;28;1153;-68
2022/12/28 03:49:47;;;;;;;;;;;5.30;99.90;;;;;;5067488;28;1085;-68
2022/12/28 03:52:12;;;;;;;;;;;5.40;99.90;;;;;;5050459;28;1100;-68
2022/12/28 03:54:39;;;;;;;;;;;5.40;99.90;;;;;;5079303;28;1258;-68
2022/12/28 03:57:06;;;;;;;;;;;5.40;99.90;;;;;;5070501;28;1109;-68
2022/12/28 03:59:37;;;;;;;;;;;5.40;99.90;;;;;;5070243;28;1973;-68
2022/12/28 04:02:04;;;;;;;;;;;5.40;99.90;;;;;;5071179;28;1171;-68
2022/12/28 04:04:32;;;;;;;;;;;5.40;99.90;;;;;;5067089;28;1424;-68
2022/12/28 04:06:57;;;;;;;;;;;5.50;99.90;;;;;;5053575;28;1100;-68
2022/12/28 04:09:23;;;;;;;;;;;5.40;99.90;;;;;;5071115;28;1097;-68
2022/12/28 04:11:49;;;;;;;;;;;5.50;99.90;;;;;;5069928;28;1155;-69
2022/12/28 04:14:23;;;;;;;;;;;5.50;99.90;;;;;;5052957;28;1085;-69
2022/12/28 04:16:48;;;;;;;;;;;5.60;99.90;;;;;;5070656;28;1088;-68
2022/12/28 04:19:16;;;;;;;;;;;5.50;99.90;;;;;;5069165;28;1910;-68
2022/12/28 04:21:42;;;;;;;;;;;5.60;99.90;;;;;;5070606;28;1264;-68
2022/12/28 04:24:09;;;;;;;;;;;5.50;99.90;;;;;;5053629;28;1183;-69
2022/12/28 04:26:35;;;;;;;;;;;5.60;99.90;;;;;;5069279;28;1312;-68
2022/12/28 04:29:01;;;;;;;;;;;5.60;99.90;;;;;;5070578;28;1217;-68
2022/12/28 04:31:36;;;;;;;;;;;5.70;99.90;;;;;;5053562;28;1048;-69
2022/12/28 04:34:06;;;;;;;;;;;5.60;99.90;;;;;;5069098;28;1182;-69
2022/12/28 04:36:38;;;;;;;;;;;5.70;99.90;;;;;;5053464;28;1159;-70
2022/12/28 04:39:07;;;;;;;;;;;5.80;99.90;;;;;;5053409;28;1937;-70
2022/12/28 04:41:33;;;;;;;;;;;5.70;99.90;;;;;;5069085;28;1226;-69
2022/12/28 04:43:59;;;;;;;;;;;5.70;99.90;;;;;;5083880;28;1139;-69
2022/12/28 04:46:25;;;;;;;;;;;5.80;99.90;;;;;;5088343;28;1111;-69
2022/12/28 04:48:50;;;;;;;;;;;5.80;99.90;;;;;;5087099;28;1227;-69
2022/12/28 04:51:21;;;;;;;;;;;5.80;99.90;;;;;;5088002;28;1115;-69
2022/12/28 04:53:47;;;;;;;;;;;5.90;99.90;;;;;;5088013;28;1302;-69
2022/12/28 04:56:13;;;;;;;;;;;5.90;99.90;;;;;;5087231;28;1064;-70
2022/12/28 04:58:39;;;;;;;;;;;6.00;99.90;;;;;;5088154;28;2000;-70
2022/12/28 05:01:05;;;;;;;;;;;6.00;99.90;;;;;;5087820;28;1146;-70
2022/12/28 05:03:32;;;;;;;;;;;5.90;99.90;;;;;;5086906;28;1178;-70
2022/12/28 05:05:59;;;;;;;;;;;5.90;99.90;;;;;;5069896;28;1140;-70
2022/12/28 05:08:24;;;;;;;;;;;5.90;99.90;;;;;;5087378;28;1095;-70
2022/12/28 05:10:50;;;;;;;;;;;6.00;99.90;;;;;;5087624;28;1155;-70
2022/12/28 05:13:15;;;;;;;;;;;6.00;99.90;;;;;;5087859;28;1206;-70
2022/12/28 05:15:41;;;;;;;;;;;6.00;99.90;;;;;;5068815;28;1144;-69
2022/12/28 05:18:07;;;;;;;;;;;6.10;99.90;;;;;;5087466;28;1147;-69
2022/12/28 05:20:32;;;;;;;;;;;6.00;99.90;;;;;;5087519;28;1925;-69
2022/12/28 05:22:58;;;;;;;;;;;6.10;99.90;;;;;;5068675;28;1096;-69
2022/12/28 05:25:24;;;;;;;;;;;6.20;99.90;;;;;;5086885;28;1095;-69
2022/12/28 05:27:49;;;;;;;;;;;6.20;99.90;;;;;;5069296;28;1534;-68
2022/12/28 05:30:15;;;;;;;;;;;6.10;99.90;;;;;;5086980;28;1131;-69
2022/12/28 05:32:40;;;;;;;;;;;6.20;99.90;;;;;;5087188;28;1198;-69
2022/12/28 05:35:06;;;;;;;;;;;6.20;99.90;;;;;;5069045;28;1068;-69
2022/12/28 05:37:32;;;;;;;;;;;6.20;99.90;;;;;;5086848;28;1096;-69
2022/12/28 05:39:58;;;;;;;;;;;6.30;99.90;;;;;;5087105;28;1921;-69
2022/12/28 05:42:23;;;;;;;;;;;6.30;99.90;;;;;;5085004;28;1135;-69
2022/12/28 05:44:49;;;;;;;;;;;6.40;99.90;;;;;;5056025;28;1168;-69
2022/12/28 05:47:14;;;;;;;;;;;6.40;99.90;;;;;;5086736;28;1092;-70
2022/12/28 05:49:40;;;;;;;;;;;6.30;99.90;;;;;;5087078;28;1092;-70
2022/12/28 05:52:06;;;;;;;;;;;6.40;99.90;;;;;;5086609;28;1084;-70
2022/12/28 05:54:31;;;;;;;;;;;6.40;99.90;;;;;;5086731;28;1247;-70
2022/12/28 05:56:58;;;;;;;;;;;6.50;99.90;;;;;;5087461;28;1076;-70
2022/12/28 05:59:24;;;;;;;;;;;6.50;99.90;;;;;;5086588;28;1894;-70
2022/12/28 06:01:49;;;;;;;;;;;6.50;99.90;;;;;;5086996;28;1084;-70
2022/12/28 06:04:16;;;;;;;;;;;6.50;99.90;;;;;;5087155;28;1214;-71
2022/12/28 06:06:42;;;;;;;;;;;6.60;99.90;;;;;;5086745;28;1131;-70
2022/12/28 06:09:08;;;;;;;;;;;6.60;99.90;;;;;;5086756;28;1007;-70
2022/12/28 06:11:34;;;;;;;;;;;6.80;99.90;;;;;;5087366;28;1032;-71
2022/12/28 06:14:00;;;;;;;;;;;6.70;99.90;;;;;;5068223;28;1072;-71
2022/12/28 06:16:27;;;;;;;;;;;6.70;99.90;;;;;;5086821;28;1099;-70
2022/12/28 06:18:53;;;;;;;;;;;6.90;99.90;;;;;;5086178;28;1938;-70
2022/12/28 06:21:20;;;;;;;;;;;6.80;99.90;;;;;;5087019;28;1147;-70
2022/12/28 06:23:46;;;;;;;;;;;6.90;99.90;;;;;;5086743;28;1168;-70
2022/12/28 06:26:12;;;;;;;;;;;7.00;99.90;;;;;;5086375;28;1308;-70
2022/12/28 06:28:38;;;;;;;;;;;7.10;99.90;;;;;;5086776;28;1087;-71
2022/12/28 06:31:05;;;;;;;;;;;7.20;99.90;;;;;;5086687;28;1103;-71
2022/12/28 06:33:31;;;;;;;;;;;7.20;99.90;;;;;;5086201;28;1195;-71
2022/12/28 06:35:57;;;;;;;;;;;7.00;99.90;;;;;;5088228;28;1131;-71
2022/12/28 06:38:23;;;;;;;;;;;7.00;99.90;;;;;;5090433;28;1909;-70
2022/12/28 06:40:48;;;;;;;;;;;7.30;99.90;;;;;;5088813;28;1104;-70
2022/12/28 06:43:14;;;;;;;;;;;7.30;99.90;;;;;;5086201;28;1068;-70
2022/12/28 06:45:40;;;;;;;;;;;7.40;99.90;;;;;;5081353;28;1069;-70
2022/12/28 06:48:05;;;;;;;;;;;7.30;99.90;;;;;;5089747;28;1088;-70
2022/12/28 06:50:31;;;;;;;;;;;7.40;99.90;;;;;;5090678;28;1132;-69
2022/12/28 06:52:57;;;;;;;;;;;7.30;99.90;;;;;;5072294;28;1124;-69
2022/12/28 06:55:22;;;;;;;;;;;7.50;99.90;;;;;;5089010;28;1143;-69
2022/12/28 06:57:48;;;;;;;;;;;7.20;99.90;;;;;;5090516;28;1087;-70
2022/12/28 07:00:14;;;;;;;;;;;7.30;99.90;;;;;;5072064;28;1981;-70
2022/12/28 07:02:39;;;;;;;;;;;7.20;99.90;;;;;;5089202;28;1281;-70
2022/12/28 07:05:05;;;;;;;;;;;7.30;99.90;;;;;;5090400;28;1135;-70
2022/12/28 07:07:31;;;;;;;;;;;7.20;99.90;;;;;;5090028;28;1217;-70
2022/12/28 07:09:56;;;;;;;;;;;7.40;99.90;;;;;;5089199;28;1091;-70
2022/12/28 07:12:22;;;;;;;;;;;7.40;99.90;;;;;;5090140;28;1099;-70
2022/12/28 07:14:47;;;;;;;;;;;7.50;99.90;;;;;;5090156;28;1174;-70
2022/12/28 07:17:13;;;;;;;;;;;7.50;99.90;;;;;;5088802;28;984;-69
2022/12/28 07:19:39;;;;;;;;;;;7.30;99.90;;;;;;5090039;28;1972;-70
2022/12/28 07:22:04;;;;;;;;;;;7.30;99.90;;;;;;5089452;28;1303;-69
2022/12/28 07:24:30;;;;;;;;;;;7.50;99.90;;;;;;5089577;28;1136;-70
2022/12/28 07:26:56;;;;;;;;;;;7.40;99.90;;;;;;5089905;28;1300;-70
2022/12/28 07:29:21;;;;;;;;;;;7.30;99.90;;;;;;5089236;28;1111;-69
2022/12/28 07:31:47;;;;;;;;;;;7.50;99.90;;;;;;5089277;28;1119;-70
2022/12/28 07:34:13;;;;;;;;;;;7.50;99.90;;;;;;5071331;28;1131;-70
2022/12/28 07:36:39;;;;;;;;;;;7.60;99.90;;;;;;5089096;28;1080;-70
2022/12/28 07:39:05;;;;;;;;;;;7.60;99.90;;;;;;5089074;28;1909;-70
2022/12/28 07:41:32;;;;;;;;;;;7.50;99.90;;;;;;5088472;28;1028;-70
2022/12/28 07:43:58;;;;;;;;;;;7.50;99.90;;;;;;5080441;28;1166;-70
2022/12/28 07:46:25;;;;;;;;;;;7.50;99.90;;;;;;5086126;28;1104;-70
2022/12/28 07:48:51;;;;;;;;;;;7.60;99.90;;;;;;5069924;28;1937;-70
2022/12/28 07:51:18;;;;;;;;;;;7.40;99.90;;;;;;5088561;28;1079;-70
2022/12/28 07:53:45;;;;;;;;;;;7.50;99.90;;;;;;5088846;28;1259;-70
2022/12/28 07:56:11;;;;;;;;;;;;;;;;;;5089328;28;1083;-71
2022/12/28 07:58:37;;;;;;;;;;;7.50;99.90;;;;;;5097239;28;1981;-71
2022/12/28 08:01:03;;;;;;;;;;;7.40;99.90;;;;;;5088561;28;1107;-71
2022/12/28 08:03:29;;;;;;;;;;;7.50;99.90;;;;;;5089254;28;1170;-71
2022/12/28 08:05:55;;;;;;;;;;;7.50;99.90;;;;;;5088234;28;1107;-71
2022/12/28 08:08:20;;;;;;;;;;;7.50;99.90;;;;;;5088752;28;1072;-70
2022/12/28 08:10:46;;;;;;;;;;;7.60;99.90;;;;;;5088890;28;1100;-71
2022/12/28 08:13:11;;;;;;;;;;;7.70;99.90;;;;;;5088447;28;1115;-70
2022/12/28 08:15:37;;;;;;;;;;;7.60;99.90;;;;;;5070156;28;1112;-71
2022/12/28 08:18:03;;;;;;;;;;;7.70;99.90;;;;;;5088892;28;1091;-70
2022/12/28 08:20:28;;;;;;;;;;;7.70;99.90;;;;;;5069819;28;1914;-69
2022/12/28 08:22:54;;;;;;;;;;;7.80;99.90;;;;;;5088711;28;1140;-69
2022/12/28 08:25:20;;;;;;;;;;;7.80;99.90;;;;;;5088371;28;1001;-69
2022/12/28 08:27:45;;;;;;;;;;;7.80;99.90;;;;;;5053943;28;1617;-69
2022/12/28 08:30:11;;;;;;;;;;;7.80;99.90;;;;;;5069747;28;1115;-69
2022/12/28 08:32:37;;;;;;;;;;;7.80;99.90;;;;;;5088118;28;1112;-69
2022/12/28 08:35:03;;;;;;;;;;;7.90;99.90;;;;;;5088731;28;1127;-68
2022/12/28 08:37:28;;;;;;;;;;;7.80;99.90;;;;;;5087858;28;1104;-69
2022/12/28 08:39:54;;;;;;;;;;;7.80;99.90;;;;;;5081518;28;1902;-69
2022/12/28 08:42:20;;;;;;;;;;;7.80;99.90;;;;;;5084961;28;1294;-70
2022/12/28 08:44:45;;;;;;;;;;;7.90;99.90;;;;;;5087865;28;996;-70
2022/12/28 08:47:11;;;;;;;;;;;7.80;99.90;;;;;;5087417;28;1137;-70
2022/12/28 08:49:37;;;;;;;;;;;7.90;99.90;;;;;;5088449;28;1056;-70
2022/12/28 08:52:03;;;;;;;;;;;7.80;99.90;;;;;;5087864;28;1163;-69
2022/12/28 08:54:28;;;;;;;;;;;7.90;99.90;;;;;;5087304;28;1440;-69
2022/12/28 08:56:54;;;;;;;;;;;7.70;99.90;;;;;;5088195;28;949;-69
2022/12/28 08:59:20;;;;;;;;;;;7.80;99.90;;;;;;5068540;28;1981;-69
2022/12/28 09:01:46;;;;;;;;;;;7.80;99.90;;;;;;5087380;28;1155;-70
2022/12/28 09:04:13;;;;;;;;;;;7.90;99.90;;;;;;5088079;28;1218;-69
2022/12/28 09:06:39;;;;;;;;;;;7.90;99.90;;;;;;5069346;28;1108;-69
2022/12/28 09:09:06;;;;;;;;;;;7.80;99.90;;;;;;5087256;28;1103;-69
2022/12/28 09:11:33;;;;;;;;;;;7.90;99.90;;;;;;5069546;28;1119;-69
2022/12/28 09:13:59;;;;;;;;;;;7.80;99.90;;;;;;5086675;28;1107;-69
2022/12/28 09:16:26;;;;;;;;;;;7.80;99.90;;;;;;5087412;28;1111;-69
2022/12/28 09:18:52;;;;;;;;;;;7.80;99.90;;;;;;5087665;28;1918;-69
2022/12/28 09:21:20;;;;;;;;;;;7.80;99.90;;;;;;5068816;28;1145;-69
2022/12/28 09:23:46;;;;;;;;;;;7.80;99.90;;;;;;5087065;28;1064;-69
2022/12/28 09:26:18;;;;;;;;;;;7.80;99.90;;;;;;5081634;28;1277;-69
2022/12/28 09:28:45;;;;;;;;;;;7.90;99.90;;;;;;5078157;28;1085;-70
2022/12/28 09:31:11;;;;;;;;;;;7.90;99.90;;;;;;5077913;28;1225;-70
2022/12/28 09:36:21;;;;;;;;;;;7.90;99.90;;;;;;5083898;28;1243;-70
2022/12/28 09:38:47;;;;;;;;;;;7.90;99.90;;;;;;5058252;28;1906;-70
2022/12/28 09:41:28;;;;;;;;;;;8.10;99.90;;;;;;5087630;28;1080;-70
2022/12/28 09:44:01;;;;;;;;;;;8.00;99.90;;;;;;5078279;28;1155;-70
2022/12/28 09:46:28;;;;;;;;;;;7.90;99.90;;;;;;5085704;28;1125;-70
2022/12/28 09:48:55;;;;;;;;;;;7.90;99.90;;;;;;5087458;28;1230;-70
2022/12/28 09:51:23;;;;;;;;;;;7.90;99.90;;;;;;5065854;28;1379;-70
2022/12/28 09:53:49;;;;;;;;;;;7.90;99.90;;;;;;5078195;28;1222;-70
2022/12/28 09:56:16;;;;;;;;;;;7.90;99.90;;;;;;5068733;28;1096;-70
2022/12/28 09:58:43;;;;;;;;;;;7.90;99.90;;;;;;5086301;28;1913;-70
2022/12/28 10:01:11;;;;;;;;;;;7.90;99.90;;;;;;5069166;28;1139;-70
2022/12/28 10:03:38;;;;;;;;;;;8.00;99.90;;;;;;5087206;28;1087;-70
2022/12/28 10:06:10;;;;;;;;;;;8.00;99.90;;;;;;5085853;28;1079;-71
2022/12/28 10:08:38;;;;;;;;;;;8.00;99.90;;;;;;5078666;28;1226;-71
2022/12/28 10:11:04;;;;;;;;;;;8.00;99.90;;;;;;5079094;28;1211;-71
2022/12/28 10:13:33;;;;;;;;;;;8.10;99.90;;;;;;5087945;28;1227;-71
2022/12/28 10:15:59;;;;;;;;;;;8.00;99.90;;;;;;5091349;28;1186;-71
2022/12/28 10:18:25;;;;;;;;;;;8.10;99.90;;;;;;5090356;28;1917;-72
2022/12/28 10:20:51;;;;;;;;;;;8.00;99.90;;;;;;5090676;28;1599;-72
2022/12/28 10:23:20;;;;;;;;;;;8.00;99.90;;;;;;5090928;28;1101;-71
2022/12/28 10:25:46;;;;;;;;;;;8.00;99.90;;;;;;5090276;28;1136;-71
2022/12/28 10:28:13;;;;;;;;;;;8.00;99.90;;;;;;5090424;28;1632;-71
2022/12/28 10:30:44;;;;;;;;;;;8.00;99.90;;;;;;5072419;28;1128;-71
2022/12/28 10:33:14;;;;;;;;;;;8.10;99.90;;;;;;5088796;28;1151;-71
2022/12/28 10:35:41;;;;;;;;;;;8.10;99.90;;;;;;5083180;28;1025;-70
2022/12/28 10:38:19;;;;;;;;;;;8.10;99.90;;;;;;5080830;28;3240;-71
2022/12/28 10:40:53;;;;;;;;;;;8.10;99.90;;;;;;5081071;28;3416;-70
2022/12/28 10:43:19;;;;;;;;;;;8.10;99.90;;;;;;5086212;28;3269;-71
2022/12/28 10:45:46;;;;;;;;;;;8.10;99.90;;;;;;5088572;28;1541;-71
2022/12/28 10:48:14;;;;;;;;;;;8.20;99.90;;;;;;5082554;28;1138;-70
2022/12/28 10:50:49;;;;;;;;;;;8.20;99.90;;;;;;5092255;28;1095;-70
2022/12/28 10:53:16;;;;;;;;;;;8.10;99.90;;;;;;5089910;28;1665;-70
2022/12/28 10:55:41;;;;;;;;;;;8.10;99.90;;;;;;5072829;28;2991;-70
2022/12/28 10:58:15;;;;;;;;;;;8.20;99.90;;;;;;5092229;28;1111;-70
2022/12/28 11:00:41;;;;;;;;;;;8.20;99.90;;;;;;5091496;28;1930;-70
2022/12/28 11:03:17;;;;;;;;;;;8.10;99.90;;;;;;5090040;28;1150;-70
2022/12/28 11:05:43;;;;;;;;;;;8.20;99.90;;;;;;5070324;28;1256;-70
2022/12/28 11:08:11;;;;;;;;;;;8.20;99.90;;;;;;5082892;28;1211;-70
2022/12/28 11:10:39;;;;;;;;;;;8.30;99.90;;;;;;5073648;28;1124;-71
2022/12/28 11:13:08;;;;;;;;;;;8.30;99.90;;;;;;5090853;28;1096;-71
2022/12/28 11:15:34;;;;;;;;;;;8.20;99.90;;;;;;5091091;28;1116;-71
2022/12/28 11:18:01;;;;;;;;;;;8.20;99.90;;;;;;5092018;28;1245;-71
2022/12/28 11:20:35;;;;;;;;;;;8.30;99.90;;;;;;5090905;28;1969;-71
2022/12/28 11:23:04;;;;;;;;;;;8.20;99.90;;;;;;5089118;28;1173;-68
2022/12/28 11:25:33;;;;;;;;;;;8.20;99.90;;;;;;5091642;28;1108;-68
2022/12/28 11:28:00;;;;;;;;;;;8.30;99.90;;;;;;5090988;28;1305;-70
2022/12/28 11:30:27;;;;;;;;;;;8.30;99.90;;;;;;5086813;28;1174;-70
2022/12/28 11:32:55;;;;;;;;;;;8.20;99.90;;;;;;5082709;28;1238;-70
2022/12/28 11:35:22;;;;;;;;;;;8.30;99.90;;;;;;5066683;28;1255;-70
2022/12/28 11:37:49;;;;;;;;;;;8.20;99.90;;;;;;5085838;28;1270;-69
2022/12/28 11:40:33;;;;;;;;;;;8.30;99.90;;;;;;5091452;28;1913;-69
2022/12/28 11:42:58;;;;;;;;;;;8.30;99.90;;;;;;5083328;28;1227;-69
2022/12/28 11:45:50;;;;;;;;;;;8.40;99.90;;;;;;5082861;28;1199;-69
2022/12/28 11:48:37;;;;;;;;;;;8.30;99.90;;;;;;5091105;28;1166;-69
2022/12/28 11:51:03;;;;;;;;;;;8.40;99.90;;;;;;5090348;28;1159;-69
2022/12/28 11:53:30;;;;;;;;;;;8.30;99.90;;;;;;5089599;28;1135;-69
2022/12/28 11:55:59;;;;;;;;;;;8.40;99.90;;;;;;5072542;28;1932;-69
2022/12/28 11:58:28;;;;;;;;;;;8.40;99.90;;;;;;5071035;28;1270;-69
2022/12/28 12:00:55;;;;;;;;;;;8.40;99.90;;;;;;5080417;28;1257;-70
2022/12/28 12:03:41;;;;;;;;;;;8.40;99.90;;;;;;5072669;28;1234;-69
2022/12/28 12:06:07;;;;;;;;;;;8.40;99.90;;;;;;5090814;28;1143;-70
2022/12/28 12:08:40;;;;;;;;;;;8.30;99.90;;;;;;5091120;28;1085;-70
2022/12/28 12:11:20;;;;;;;;;;;8.30;99.90;;;;;;5090397;28;1008;-70
2022/12/28 12:13:47;;;;;;;;;;;8.30;99.90;;;;;;5091051;28;1099;-70
2022/12/28 12:16:17;;;;;;;;;;;8.30;99.90;;;;;;5091089;28;1167;-70
2022/12/28 12:18:45;;;;;;;;;;;8.30;99.90;;;;;;5089743;28;1981;-70
2022/12/28 12:21:21;;;;;;;;;;;8.30;99.90;;;;;;5090971;28;1355;-70
2022/12/28 12:23:49;;;;;;;;;;;8.20;99.90;;;;;;5055764;28;1164;-71
2022/12/28 12:26:20;;;;;;;;;;;8.30;99.90;;;;;;5089591;28;1494;-71
2022/12/28 12:28:48;;;;;;;;;;;8.30;99.90;;;;;;5072484;28;1129;-70
2022/12/28 12:31:24;;;;;;;;;;;8.30;99.90;;;;;;5090649;28;1076;-70
2022/12/28 12:33:51;;;;;;;;;;;8.30;99.90;;;;;;5075920;28;1231;-70
2022/12/28 12:36:26;;;;;;;;;;;8.20;99.90;;;;;;5090592;28;1135;-70
2022/12/28 12:39:07;;;;;;;;;;;8.30;99.90;;;;;;5071644;28;2009;-70
2022/12/28 12:41:51;;;;;;;;;;;8.30;99.90;;;;;;5090158;28;1100;-70
2022/12/28 12:44:17;;;;;;;;;;;8.20;99.90;;;;;;5084802;28;1174;-70
2022/12/28 12:46:53;;;;;;;;;;;8.20;99.90;;;;;;5079931;28;1088;-70
2022/12/28 12:49:21;;;;;;;;;;;8.20;99.90;;;;;;5088626;28;1235;-69
2022/12/28 12:51:59;;;;;;;;;;;8.30;99.90;;;;;;5090433;28;1111;-69
2022/12/28 12:54:31;;;;;;;;;;;8.20;99.90;;;;;;5089342;28;1092;-70
2022/12/28 12:56:59;;;;;;;;;;;8.20;99.90;;;;;;5080550;28;1235;-70
2022/12/28 12:59:37;;;;;;;;;;;8.30;99.90;;;;;;5082682;28;1911;-69
2022/12/28 13:02:05;;;;;;;;;;;8.30;99.90;;;;;;5066442;28;1184;-69
2022/12/28 13:04:33;;;;;;;;;;;8.30;99.90;;;;;;5086352;28;1263;-69
2022/12/28 13:07:01;;;;;;;;;;;8.80;99.90;;;;;;5089297;28;1170;-69
2022/12/28 13:09:29;;;;;;;;;;;9.60;99.90;;;;;;5090062;28;1166;-69
2022/12/28 13:11:55;;;;;;;;;;;8.30;99.90;;;;;;5089566;28;1147;-69
2022/12/28 13:14:22;;;;;;;;;;;8.20;99.90;;;;;;5089812;28;1060;-69
2022/12/28 13:16:51;;;;;;;;;;;8.20;99.90;;;;;;5089830;28;1194;-70
2022/12/28 13:19:18;;;;;;;;;;;8.20;99.90;;;;;;5087982;28;1910;-69
2022/12/28 13:21:45;;;;;;;;;;;8.20;99.90;;;;;;5080801;28;1222;-70
2022/12/28 13:24:26;;;;;;;;;;;8.30;99.90;;;;;;5080982;28;1243;-70
2022/12/28 13:26:52;;;;;;;;;;;8.30;99.90;;;;;;5081322;28;3082;-70
2022/12/28 13:29:19;;;;;;;;;;;8.30;99.90;;;;;;5089102;28;1051;-70
2022/12/28 13:31:48;;;;;;;;;;;8.20;99.90;;;;;;5086110;28;1107;-70
2022/12/28 13:34:21;;;;;;;;;;;8.20;99.90;;;;;;5089269;28;1088;-69
2022/12/28 13:36:48;;;;;;;;;;;8.20;99.90;;;;;;5088928;28;1150;-70
2022/12/28 13:39:14;;;;;;;;;;;8.20;99.90;;;;;;5089491;28;1992;-70
2022/12/28 13:41:45;;;;;;;;;;;8.20;99.90;;;;;;5089283;28;1135;-70
2022/12/28 13:44:29;;;;;;;;;;;8.20;99.90;;;;;;5078517;28;1159;-70
2022/12/28 13:46:58;;;;;;;;;;;8.30;99.90;;;;;;5078105;28;1155;-70
2022/12/28 13:49:24;;;;;;;;;;;8.20;99.90;;;;;;5088119;28;1576;-70
2022/12/28 13:51:50;;;;;;;;;;;8.20;99.90;;;;;;5054622;28;1172;-70
2022/12/28 13:54:16;;;;;;;;;;;8.20;99.90;;;;;;5081456;28;1281;-69
2022/12/28 13:56:42;;;;;;;;;;;8.10;99.90;;;;;;5079732;28;1234;-70
2022/12/28 13:59:11;;;;;;;;;;;8.20;99.90;;;;;;5086466;28;1977;-69
2022/12/28 14:01:41;;;;;;;;;;;8.20;99.90;;;;;;5083005;28;1179;-69
2022/12/28 14:04:09;;;;;;;;;;;8.20;99.90;;;;;;5083009;28;1285;-70
2022/12/28 14:06:34;;;;;;;;;;;8.20;99.90;;;;;;5087060;28;1199;-69
2022/12/28 14:09:00;;;;;;;;;;;8.20;99.90;;;;;;5083087;28;1147;-69
2022/12/28 14:11:27;;;;;;;;;;;8.10;99.90;;;;;;5079159;28;1248;-69
2022/12/28 14:13:53;;;;;;;;;;;8.10;99.90;;;;;;5086726;28;1065;-69
2022/12/28 14:16:19;;;;;;;;;;;8.10;99.90;;;;;;5089727;28;1151;-69
2022/12/28 14:18:46;;;;;;;;;;;8.00;99.90;;;;;;5070111;28;1910;-69
2022/12/28 14:21:11;;;;;;;;;;;8.00;99.90;;;;;;5089100;28;1159;-69
2022/12/28 14:23:38;;;;;;;;;;;7.90;99.90;;;;;;5089240;28;1061;-69
2022/12/28 14:26:07;;;;;;;;;;;7.90;99.90;;;;;;5088025;28;1308;-70
2022/12/28 14:28:33;;;;;;;;;;;7.90;99.90;;;;;;5089112;28;1104;-70
2022/12/28 14:30:59;;;;;;;;;;;7.80;99.90;;;;;;5087338;28;1203;-70
2022/12/28 14:33:26;;;;;;;;;;;7.80;99.90;;;;;;5087958;28;1099;-69
2022/12/28 14:35:56;;;;;;;;;;;7.80;99.90;;;;;;5070845;28;1140;-69
2022/12/28 14:38:27;;;;;;;;;;;7.70;99.90;;;;;;5088359;28;1205;-69
2022/12/28 14:40:55;;;;;;;;;;;7.70;99.90;;;;;;5088550;28;1906;-69
2022/12/28 14:43:23;;;;;;;;;;;7.70;99.90;;;;;;5084278;28;1135;-69
2022/12/28 14:45:48;;;;;;;;;;;7.70;99.90;;;;;;5082223;28;1249;-69
2022/12/28 14:48:20;;;;;;;;;;;7.70;99.90;;;;;;5084298;28;1191;-69
2022/12/28 14:51:00;;;;;;;;;;;7.70;99.90;;;;;;5074234;28;1305;-69
2022/12/28 14:53:26;;;;;;;;;;;7.70;99.90;;;;;;5087840;28;1168;-66
2022/12/28 14:55:51;;;;;;;;;;;7.70;99.90;;;;;;5088242;28;1155;-68
2022/12/28 14:58:20;;;;;;;;;;;7.70;99.90;;;;;;5092083;28;1158;-68
2022/12/28 15:00:59;;;;;;;;;;;7.70;99.90;;;;;;5091421;28;1972;-68
2022/12/28 15:03:27;;;;;;;;;;;7.70;99.90;;;;;;5092024;28;1143;-68
2022/12/28 15:05:55;;;;;;;;;;;7.70;99.90;;;;;;5092753;28;1229;-68
2022/12/28 15:08:22;;;;;;;;;;;7.70;99.90;;;;;;5091734;28;1158;-69
2022/12/28 15:10:50;;;;;;;;;;;7.60;99.90;;;;;;5091642;28;1087;-68
2022/12/28 15:13:17;;;;;;;;;;;7.70;99.90;;;;;;5091710;28;1127;-68
2022/12/28 15:15:43;;;;;;;;;;;7.60;99.90;;;;;;5092197;28;1229;-68
2022/12/28 15:18:08;;;;;;;;;;;7.60;99.90;;;;;;5088563;28;976;-69